createdAt,value
2023-03-10T00:01:14.091Z,1.10
2023-03-10T00:03:42.404Z,0.90
2023-03-10T00:06:12.843Z,1.10
2023-03-10T00:08:43.416Z,1.00
2023-03-10T00:11:13.766Z,0.70
2023-03-10T00:13:42.229Z,1.00
2023-03-10T00:16:17.823Z,1.00
2023-03-10T00:18:46.903Z,0.60
2023-03-10T00:21:16.988Z,1.00
2023-03-10T00:23:47.103Z,1.00
2023-03-10T00:26:17.423Z,1.00
2023-03-10T00:28:46.748Z,1.00
2023-03-10T00:31:17.945Z,1.00
2023-03-10T00:33:46.739Z,1.00
2023-03-10T00:36:17.788Z,1.00
2023-03-10T00:38:48.608Z,1.00
2023-03-10T00:41:18.367Z,1.20
2023-03-10T00:43:46.868Z,1.10
2023-03-10T00:46:15.477Z,0.90
2023-03-10T00:48:43.932Z,0.90
2023-03-10T00:51:13.264Z,0.90
2023-03-10T00:53:42.450Z,0.90
2023-03-10T00:56:14.981Z,0.90
2023-03-10T00:58:43.945Z,1.00
2023-03-10T01:01:16.180Z,1.00
2023-03-10T01:03:45.341Z,1.00
2023-03-10T01:06:13.797Z,1.00
2023-03-10T01:08:42.123Z,1.00
2023-03-10T01:11:14.214Z,1.00
2023-03-10T01:13:42.614Z,0.90
2023-03-10T01:16:11.233Z,1.00
2023-03-10T01:18:39.741Z,1.00
2023-03-10T01:21:08.719Z,1.00
2023-03-10T01:23:37.029Z,1.00
2023-03-10T01:26:05.498Z,0.90
2023-03-10T01:28:35.195Z,1.00
2023-03-10T01:31:05.242Z,1.00
2023-03-10T01:33:34.736Z,1.00
2023-03-10T01:36:03.315Z,1.00
2023-03-10T01:38:31.662Z,1.00
2023-03-10T01:41:00.091Z,1.00
2023-03-10T01:43:30.379Z,1.00
2023-03-10T01:46:35.542Z,1.00
2023-03-10T01:49:09.014Z,1.00
2023-03-10T01:51:39.258Z,1.00
2023-03-10T01:54:11.215Z,1.00
2023-03-10T01:56:41.000Z,1.00
2023-03-10T01:59:10.559Z,1.10
2023-03-10T02:01:40.289Z,1.10
2023-03-10T02:04:15.243Z,1.20
2023-03-10T02:06:45.439Z,1.10
2023-03-10T02:09:14.732Z,1.10
2023-03-10T02:11:44.322Z,1.00
2023-03-10T02:14:13.004Z,1.10
2023-03-10T02:16:43.079Z,1.10
2023-03-10T02:19:25.014Z,1.00
2023-03-10T02:22:01.994Z,1.00
2023-03-10T02:24:37.232Z,1.10
2023-03-10T02:27:20.462Z,1.10
2023-03-10T02:29:59.205Z,1.10
2023-03-10T02:32:30.428Z,1.10
2023-03-10T02:34:58.788Z,1.10
2023-03-10T02:37:30.379Z,1.10
2023-03-10T02:39:59.892Z,1.00
2023-03-10T02:42:33.910Z,1.00
2023-03-10T02:45:04.281Z,1.00
2023-03-10T02:47:32.614Z,1.10
2023-03-10T02:50:00.822Z,1.10
2023-03-10T02:52:36.134Z,1.10
2023-03-10T02:55:04.924Z,1.10
2023-03-10T02:57:34.926Z,1.10
2023-03-10T03:00:05.332Z,1.10
2023-03-10T03:02:33.893Z,1.10
2023-03-10T03:05:02.170Z,1.10
2023-03-10T03:07:30.741Z,1.20
2023-03-10T03:09:59.027Z,1.20
2023-03-10T03:12:27.351Z,1.20
2023-03-10T03:14:57.138Z,1.20
2023-03-10T03:17:25.486Z,1.20
2023-03-10T03:19:53.791Z,1.20
2023-03-10T03:22:22.091Z,1.20
2023-03-10T03:24:50.471Z,1.30
2023-03-10T03:27:18.680Z,1.20
2023-03-10T03:29:47.065Z,1.20
2023-03-10T03:32:16.890Z,1.20
2023-03-10T03:34:45.387Z,1.20
2023-03-10T03:37:13.710Z,1.20
2023-03-10T03:39:42.282Z,1.20
2023-03-10T03:42:10.808Z,1.30
2023-03-10T03:44:39.415Z,1.30
2023-03-10T03:47:09.209Z,1.20
2023-03-10T03:49:39.356Z,1.20
2023-03-10T03:52:08.653Z,1.20
2023-03-10T03:54:36.977Z,1.20
2023-03-10T03:57:05.745Z,1.20
2023-03-10T03:59:34.028Z,1.30
2023-03-10T04:02:02.448Z,1.30
2023-03-10T04:04:30.841Z,1.30
2023-03-10T04:07:01.268Z,1.30
2023-03-10T04:09:30.410Z,1.30
2023-03-10T04:11:59.046Z,1.30
2023-03-10T04:14:27.591Z,1.30
2023-03-10T04:16:56.138Z,1.30
2023-03-10T04:19:24.771Z,1.30
2023-03-10T04:21:53.371Z,1.30
2023-03-10T04:24:23.287Z,1.30
2023-03-10T04:26:51.781Z,1.30
2023-03-10T04:29:24.643Z,1.30
2023-03-10T04:32:04.920Z,1.30
2023-03-10T04:34:34.500Z,1.30
2023-03-10T04:37:02.875Z,1.50
2023-03-10T04:39:32.806Z,1.30
2023-03-10T04:42:01.545Z,1.30
2023-03-10T04:44:31.287Z,1.30
2023-03-10T04:47:00.772Z,1.30
2023-03-10T04:49:29.846Z,1.30
2023-03-10T04:51:58.430Z,1.40
2023-03-10T04:54:27.010Z,1.40
2023-03-10T04:56:57.044Z,1.40
2023-03-10T04:59:25.508Z,1.40
2023-03-10T05:01:54.132Z,1.40
2023-03-10T05:04:23.128Z,1.50
2023-03-10T05:06:52.027Z,1.50
2023-03-10T05:09:20.301Z,1.50
2023-03-10T05:11:48.295Z,1.50
2023-03-10T05:14:18.035Z,1.50
2023-03-10T05:16:48.828Z,1.50
2023-03-10T05:19:17.203Z,1.50
2023-03-10T05:21:45.273Z,1.50
2023-03-10T05:24:13.344Z,1.60
2023-03-10T05:26:41.775Z,1.60
2023-03-10T05:29:09.913Z,1.50
2023-03-10T05:31:39.430Z,1.60
2023-03-10T05:34:07.509Z,1.60
2023-03-10T05:36:35.784Z,1.50
2023-03-10T05:39:05.946Z,1.60
2023-03-10T05:41:34.412Z,1.60
2023-03-10T05:44:02.462Z,1.60
2023-03-10T05:46:30.857Z,1.60
2023-03-10T05:49:00.338Z,1.60
2023-03-10T05:51:28.769Z,1.60
2023-03-10T05:53:56.822Z,1.60
2023-03-10T05:56:24.994Z,1.70
2023-03-10T05:58:53.147Z,1.70
2023-03-10T06:01:21.453Z,1.70
2023-03-10T06:03:49.698Z,1.70
2023-03-10T06:06:19.190Z,1.60
2023-03-10T06:08:47.247Z,1.70
2023-03-10T06:11:15.374Z,1.60
2023-03-10T06:13:43.518Z,1.70
2023-03-10T06:16:13.234Z,1.70
2023-03-10T06:18:41.469Z,1.70
2023-03-10T06:21:12.687Z,1.70
2023-03-10T06:23:42.676Z,1.80
2023-03-10T06:26:14.247Z,1.80
2023-03-10T06:28:44.523Z,1.80
2023-03-10T06:31:15.883Z,1.80
2023-03-10T06:33:44.258Z,1.90
2023-03-10T06:36:13.788Z,1.90
2023-03-10T06:38:43.775Z,1.90
2023-03-10T06:41:12.190Z,1.90
2023-03-10T06:43:40.949Z,1.90
2023-03-10T06:46:10.831Z,1.90
2023-03-10T06:48:39.760Z,1.90
2023-03-10T06:51:09.204Z,1.90
2023-03-10T06:53:37.690Z,2.00
2023-03-10T06:56:09.536Z,1.90
2023-03-10T06:58:38.449Z,1.90
2023-03-10T07:01:08.346Z,1.90
2023-03-10T07:03:37.301Z,2.00
2023-03-10T07:06:05.669Z,2.00
2023-03-10T07:08:33.732Z,2.00
2023-03-10T07:11:01.864Z,2.00
2023-03-10T07:13:31.327Z,2.10
2023-03-10T07:15:59.460Z,2.10
2023-03-10T07:18:29.616Z,2.10
2023-03-10T07:20:58.357Z,2.10
2023-03-10T07:23:27.237Z,2.30
2023-03-10T07:25:57.116Z,2.30
2023-03-10T07:28:25.767Z,2.30
2023-03-10T07:30:56.556Z,2.40
2023-03-10T07:33:24.836Z,2.40
2023-03-10T07:35:53.054Z,2.50
2023-03-10T07:38:21.290Z,2.60
2023-03-10T07:40:49.456Z,2.60
2023-03-10T07:43:17.558Z,2.70
2023-03-10T07:45:46.033Z,2.70
2023-03-10T07:48:15.620Z,2.70
2023-03-10T07:50:44.092Z,2.80
2023-03-10T07:53:12.329Z,2.90
2023-03-10T07:55:40.446Z,2.90
2023-03-10T07:58:08.563Z,3.10
2023-03-10T08:00:36.656Z,2.90
2023-03-10T08:03:04.932Z,3.20
2023-03-10T08:05:34.472Z,3.20
2023-03-10T08:08:02.599Z,3.30
2023-03-10T08:10:30.837Z,3.40
2023-03-10T08:12:58.937Z,3.50
2023-03-10T08:15:27.198Z,3.70
2023-03-10T08:17:55.479Z,3.80
2023-03-10T08:20:23.785Z,4.00
2023-03-10T08:22:53.829Z,4.10
2023-03-10T08:25:22.079Z,4.20
2023-03-10T08:27:50.952Z,4.40
2023-03-10T08:30:19.582Z,4.50
2023-03-10T08:32:47.818Z,4.60
2023-03-10T08:35:16.908Z,4.60
2023-03-10T08:37:45.088Z,4.60
2023-03-10T08:40:16.173Z,4.60
2023-03-10T08:42:46.944Z,4.60
2023-03-10T08:45:16.374Z,4.60
2023-03-10T08:47:44.540Z,4.50
2023-03-10T08:50:14.144Z,4.70
2023-03-10T08:52:42.802Z,4.70
2023-03-10T08:55:12.840Z,5.10
2023-03-10T08:57:42.430Z,5.30
2023-03-10T09:00:16.690Z,5.70
2023-03-10T09:02:45.548Z,6.00
2023-03-10T09:05:13.710Z,6.50
2023-03-10T09:07:41.961Z,6.80
2023-03-10T09:10:11.029Z,7.00
2023-03-10T09:12:39.503Z,7.50
2023-03-10T09:15:10.242Z,7.10
2023-03-10T09:17:40.631Z,7.20
2023-03-10T09:20:09.929Z,7.50
2023-03-10T09:22:38.140Z,7.80
2023-03-10T09:25:07.151Z,7.90
2023-03-10T09:27:35.426Z,7.90
2023-03-10T09:30:03.652Z,7.90
2023-03-10T09:32:33.491Z,8.00
2023-03-10T09:35:01.930Z,8.20
2023-03-10T09:37:30.190Z,8.30
2023-03-10T09:39:58.856Z,8.40
2023-03-10T09:42:38.991Z,8.50
2023-03-10T09:45:24.347Z,8.70
2023-03-10T09:48:08.832Z,8.50
2023-03-10T09:50:41.795Z,8.50
2023-03-10T09:53:30.524Z,8.70
2023-03-10T09:55:59.131Z,8.70
2023-03-10T09:58:34.413Z,8.70
2023-03-10T10:01:04.524Z,8.70
2023-03-10T10:03:51.504Z,8.80
2023-03-10T10:06:28.043Z,8.80
2023-03-10T10:09:05.122Z,8.80
2023-03-10T10:11:35.165Z,8.80
2023-03-10T10:14:27.885Z,8.80
2023-03-10T10:17:03.903Z,8.70
2023-03-10T10:19:36.636Z,8.60
2023-03-10T10:22:11.436Z,8.60
2023-03-10T10:24:40.702Z,8.60
2023-03-10T10:27:09.023Z,8.50
2023-03-10T10:29:38.982Z,8.50
2023-03-10T10:32:10.183Z,8.40
2023-03-10T10:34:42.193Z,8.40
2023-03-10T10:37:28.707Z,8.40
2023-03-10T10:39:58.433Z,8.40
2023-03-10T10:42:29.186Z,8.30
2023-03-10T10:44:59.385Z,8.40
2023-03-10T10:47:31.244Z,8.40
2023-03-10T10:50:18.873Z,8.50
2023-03-10T10:52:49.283Z,8.50
2023-03-10T10:55:29.846Z,8.40
2023-03-10T10:58:01.690Z,8.50
2023-03-10T11:00:32.399Z,8.60
2023-03-10T11:03:00.956Z,8.50
2023-03-10T11:05:37.686Z,8.60
2023-03-10T11:08:20.126Z,8.70
2023-03-10T11:10:55.837Z,8.60
2023-03-10T11:13:30.500Z,8.50
2023-03-10T11:16:06.810Z,8.40
2023-03-10T11:18:40.281Z,8.30
2023-03-10T11:21:14.996Z,7.00
2023-03-10T11:23:49.277Z,8.10
2023-03-10T11:26:28.196Z,8.10
2023-03-10T11:29:01.358Z,8.00
2023-03-10T11:31:40.973Z,8.00
2023-03-10T11:37:15.100Z,8.10
2023-03-10T11:39:51.692Z,8.10
2023-03-10T11:42:30.762Z,8.10
2023-03-10T11:45:12.549Z,8.00
2023-03-10T11:47:57.206Z,7.90
2023-03-10T11:50:34.290Z,7.80
2023-03-10T11:53:10.684Z,7.70
2023-03-10T11:55:40.174Z,7.70
2023-03-10T11:58:19.535Z,7.80
2023-03-10T12:00:48.852Z,7.80
2023-03-10T12:03:22.177Z,7.90
2023-03-10T12:05:54.788Z,8.00
2023-03-10T12:08:29.341Z,8.00
2023-03-10T12:10:57.749Z,7.90
2023-03-10T12:13:28.581Z,7.80
2023-03-10T12:15:59.959Z,7.70
2023-03-10T12:18:29.023Z,7.70
2023-03-10T12:21:21.613Z,7.80
2023-03-10T12:23:52.933Z,7.90
2023-03-10T12:26:59.357Z,8.00
2023-03-10T12:29:44.365Z,8.20
2023-03-10T12:32:44.556Z,8.40
2023-03-10T12:35:46.144Z,8.50
2023-03-10T12:38:32.877Z,8.50
2023-03-10T12:41:03.265Z,8.40
2023-03-10T12:44:02.296Z,8.40
2023-03-10T12:46:42.022Z,8.40
2023-03-10T12:49:30.603Z,8.50
2023-03-10T12:52:17.189Z,8.40
2023-03-10T12:54:52.649Z,8.40
2023-03-10T12:57:29.922Z,8.60
2023-03-10T13:00:02.609Z,8.50
2023-03-10T13:02:38.571Z,8.60
2023-03-10T13:05:18.160Z,8.60
2023-03-10T13:07:50.062Z,8.50
2023-03-10T13:10:21.777Z,8.30
2023-03-10T13:12:54.570Z,8.20
2023-03-10T13:15:25.093Z,8.10
2023-03-10T13:17:55.376Z,8.10
2023-03-10T13:20:24.177Z,8.10
2023-03-10T13:22:57.062Z,8.20
2023-03-10T13:25:26.706Z,8.20
2023-03-10T13:27:57.543Z,8.30
2023-03-10T13:30:27.884Z,8.20
2023-03-10T13:32:58.460Z,8.20
2023-03-10T13:35:32.374Z,8.30
2023-03-10T13:38:16.244Z,8.40
2023-03-10T13:40:46.710Z,8.40
2023-03-10T13:43:35.152Z,8.50
2023-03-10T13:46:05.348Z,8.70
2023-03-10T13:48:35.243Z,8.80
2023-03-10T13:51:08.979Z,8.90
2023-03-10T13:53:37.207Z,8.90
2023-03-10T13:56:22.519Z,8.70
2023-03-10T13:58:54.722Z,8.60
2023-03-10T14:01:26.188Z,8.40
2023-03-10T14:03:59.204Z,8.10
2023-03-10T14:06:29.837Z,8.00
2023-03-10T14:08:58.511Z,7.90
2023-03-10T14:11:35.433Z,7.90
2023-03-10T14:14:08.083Z,8.00
2023-03-10T14:16:50.843Z,7.70
2023-03-10T14:19:47.771Z,7.60
2023-03-10T14:22:24.907Z,7.40
2023-03-10T14:24:53.346Z,7.30
2023-03-10T14:27:21.842Z,7.30
2023-03-10T14:29:53.766Z,7.40
2023-03-10T14:32:22.693Z,7.20
2023-03-10T14:34:51.143Z,7.30
2023-03-10T14:37:19.445Z,7.40
2023-03-10T14:39:47.705Z,7.40
2023-03-10T14:42:22.297Z,7.40
2023-03-10T14:44:52.266Z,7.40
2023-03-10T14:47:20.801Z,7.30
2023-03-10T14:49:49.584Z,7.10
2023-03-10T14:52:20.363Z,7.00
2023-03-10T14:54:48.644Z,6.90
2023-03-10T14:57:21.961Z,6.70
2023-03-10T14:59:51.766Z,6.70
2023-03-10T15:02:23.444Z,6.60
2023-03-10T15:04:52.231Z,6.50
2023-03-10T15:07:20.558Z,6.50
2023-03-10T15:09:50.911Z,6.40
2023-03-10T15:12:23.058Z,6.30
2023-03-10T15:14:55.952Z,6.30
2023-03-10T15:17:24.359Z,6.10
2023-03-10T15:19:52.559Z,6.00
2023-03-10T15:22:20.858Z,6.10
2023-03-10T15:24:49.110Z,6.10
2023-03-10T15:27:17.288Z,6.00
2023-03-10T15:29:45.515Z,5.90
2023-03-10T15:32:15.260Z,5.80
2023-03-10T15:34:43.568Z,5.80
2023-03-10T15:37:13.341Z,5.70
2023-03-10T15:39:41.540Z,5.70
2023-03-10T15:42:09.716Z,5.60
2023-03-10T15:44:38.694Z,5.50
2023-03-10T15:47:07.429Z,5.30
2023-03-10T15:49:40.077Z,5.30
2023-03-10T15:52:08.415Z,5.20
2023-03-10T15:54:36.583Z,5.10
2023-03-10T15:57:04.988Z,5.00
2023-03-10T15:59:35.900Z,4.90
2023-03-10T16:02:04.350Z,4.80
2023-03-10T16:04:33.153Z,4.80
2023-03-10T16:07:04.879Z,4.80
2023-03-10T16:09:33.731Z,4.70
2023-03-10T16:12:02.130Z,4.70
2023-03-10T16:14:31.089Z,4.60
2023-03-10T16:16:59.671Z,4.50
2023-03-10T16:19:28.687Z,4.30
2023-03-10T16:21:57.065Z,4.30
2023-03-10T16:24:26.866Z,4.20
2023-03-10T16:26:55.480Z,4.20
2023-03-10T16:29:23.868Z,4.20
2023-03-10T16:31:52.574Z,4.20
2023-03-10T16:34:21.131Z,4.20
2023-03-10T16:36:50.693Z,4.20
2023-03-10T16:39:19.204Z,4.10
2023-03-10T16:41:49.003Z,4.10
2023-03-10T16:44:17.368Z,4.00
2023-03-10T16:46:45.647Z,4.10
2023-03-10T16:49:15.881Z,4.00
2023-03-10T16:51:48.820Z,4.00
2023-03-10T16:54:19.013Z,4.00
2023-03-10T16:56:49.883Z,4.00
2023-03-10T16:59:19.729Z,4.00
2023-03-10T17:01:48.347Z,4.00
2023-03-10T17:04:16.715Z,4.00
2023-03-10T17:06:46.491Z,4.00
2023-03-10T17:09:15.908Z,3.90
2023-03-10T17:11:47.001Z,3.90
2023-03-10T17:14:17.748Z,3.90
2023-03-10T17:16:47.561Z,3.90
2023-03-10T17:19:18.319Z,3.90
2023-03-10T17:21:48.694Z,3.70
2023-03-10T17:24:18.696Z,3.60
2023-03-10T17:26:47.679Z,3.60
2023-03-10T17:29:17.581Z,3.50
2023-03-10T17:31:50.400Z,3.50
2023-03-10T17:34:20.004Z,3.50
2023-03-10T17:36:51.100Z,3.40
2023-03-10T17:39:21.238Z,3.40
2023-03-10T17:41:49.873Z,3.40
2023-03-10T17:44:19.902Z,3.40
2023-03-10T17:46:48.541Z,3.40
2023-03-10T17:49:18.862Z,3.40
2023-03-10T17:51:47.350Z,3.30
2023-03-10T17:54:17.651Z,3.30
2023-03-10T17:56:46.116Z,3.30
2023-03-10T17:59:15.340Z,3.30
2023-03-10T18:01:46.763Z,3.20
2023-03-10T18:04:15.291Z,3.30
2023-03-10T18:06:44.015Z,3.30
2023-03-10T18:09:15.062Z,3.20
2023-03-10T18:11:43.363Z,3.20
2023-03-10T18:14:11.895Z,3.20
2023-03-10T18:16:41.770Z,3.20
2023-03-10T18:19:12.538Z,3.20
2023-03-10T18:21:41.406Z,3.10
2023-03-10T18:24:11.941Z,3.00
2023-03-10T18:26:43.489Z,2.90
2023-03-10T18:29:12.439Z,2.90
2023-03-10T18:31:41.227Z,2.90
2023-03-10T18:34:12.986Z,2.80
2023-03-10T18:36:41.618Z,2.80
2023-03-10T18:39:09.913Z,2.90
2023-03-10T18:41:38.281Z,2.80
2023-03-10T18:44:06.875Z,2.90
2023-03-10T18:46:35.375Z,2.70
2023-03-10T18:49:03.854Z,2.70
2023-03-10T18:51:33.570Z,2.70
2023-03-10T18:54:02.055Z,2.70
2023-03-10T18:56:31.564Z,2.70
2023-03-10T18:58:59.909Z,2.70
2023-03-10T19:01:28.175Z,2.70
2023-03-10T19:03:56.441Z,2.70
2023-03-10T19:06:24.744Z,2.70
2023-03-10T19:08:54.474Z,2.60
2023-03-10T19:11:24.957Z,2.60
2023-03-10T19:13:53.287Z,2.60
2023-03-10T19:16:22.585Z,2.70
2023-03-10T19:18:51.010Z,2.60
2023-03-10T19:21:21.921Z,2.60
2023-03-10T19:23:51.457Z,2.60
2023-03-10T19:26:21.076Z,2.60
2023-03-10T19:28:49.330Z,2.70
2023-03-10T19:31:18.058Z,2.70
2023-03-10T19:33:46.694Z,2.60
2023-03-10T19:36:15.941Z,2.60
2023-03-10T19:38:45.466Z,2.60
2023-03-10T19:41:15.491Z,2.50
2023-03-10T19:43:45.688Z,2.60
2023-03-10T19:46:16.568Z,2.60
2023-03-10T19:48:45.536Z,2.60
2023-03-10T19:51:25.378Z,2.50
2023-03-10T19:53:54.957Z,2.50
2023-03-10T19:56:25.516Z,2.60
2023-03-10T19:58:55.159Z,2.40
2023-03-10T20:01:25.320Z,2.40
2023-03-10T20:03:55.431Z,3.00
2023-03-10T20:06:24.431Z,2.40
2023-03-10T20:08:53.717Z,2.40
2023-03-10T20:11:22.497Z,2.40
2023-03-10T20:13:55.351Z,2.40
2023-03-10T20:16:27.775Z,2.40
2023-03-10T20:18:56.238Z,2.30
2023-03-10T20:21:24.528Z,2.30
2023-03-10T20:23:55.493Z,2.30
2023-03-10T20:26:24.890Z,2.40
2023-03-10T20:28:54.596Z,2.40
2023-03-10T20:31:24.425Z,2.30
2023-03-10T20:33:53.285Z,2.40
2023-03-10T20:36:21.671Z,2.30
2023-03-10T20:38:49.927Z,2.30
2023-03-10T20:41:19.805Z,2.30
2023-03-10T20:43:48.622Z,2.30
2023-03-10T20:46:20.195Z,2.20
2023-03-10T20:48:50.836Z,2.20
2023-03-10T20:51:19.604Z,2.20
2023-03-10T20:53:48.501Z,2.20
2023-03-10T20:56:16.959Z,2.10
2023-03-10T20:58:45.775Z,2.10
2023-03-10T21:01:20.866Z,2.10
2023-03-10T21:03:54.686Z,2.10
2023-03-10T21:06:24.470Z,2.10
2023-03-10T21:09:10.246Z,2.10
2023-03-10T21:11:40.585Z,2.10
2023-03-10T21:14:08.906Z,2.10
2023-03-10T21:16:41.659Z,2.10
2023-03-10T21:19:12.740Z,2.10
2023-03-10T21:21:41.169Z,2.10
2023-03-10T21:24:09.782Z,2.10
2023-03-10T21:26:38.546Z,2.10
2023-03-10T21:29:06.917Z,2.10
2023-03-10T21:31:35.164Z,2.10
2023-03-10T21:34:05.296Z,2.10
2023-03-10T21:36:33.652Z,2.10
2023-03-10T21:39:02.904Z,2.10
2023-03-10T21:41:31.716Z,2.10
2023-03-10T21:44:00.878Z,2.10
2023-03-10T21:46:29.320Z,2.10
2023-03-10T21:48:57.949Z,2.10
2023-03-10T21:51:28.330Z,2.10
2023-03-10T21:53:56.718Z,2.10
2023-03-10T21:56:28.304Z,2.10
2023-03-10T21:58:57.249Z,2.10
2023-03-10T22:01:26.869Z,2.00
2023-03-10T22:03:54.987Z,2.00
2023-03-10T22:06:23.230Z,1.90
2023-03-10T22:08:53.046Z,1.90
2023-03-10T22:11:21.314Z,1.90
2023-03-10T22:13:49.395Z,1.90
2023-03-10T22:16:18.954Z,1.90
2023-03-10T22:18:49.313Z,2.00
2023-03-10T22:21:17.545Z,1.90
2023-03-10T22:23:46.050Z,2.20
2023-03-10T22:26:15.658Z,1.90
2023-03-10T22:28:43.702Z,1.80
2023-03-10T22:31:12.146Z,1.80
2023-03-10T22:33:40.302Z,1.90
2023-03-10T22:36:12.241Z,1.90
2023-03-10T22:38:40.640Z,1.80
2023-03-10T22:41:11.770Z,1.80
2023-03-10T22:43:41.449Z,1.80
2023-03-10T22:46:12.228Z,1.80
2023-03-10T22:48:40.711Z,1.80
2023-03-10T22:51:09.948Z,1.80
2023-03-10T22:53:38.349Z,1.70
2023-03-10T22:56:06.845Z,1.80
2023-03-10T22:58:34.885Z,1.60
2023-03-10T23:01:04.454Z,1.60
2023-03-10T23:03:33.941Z,1.70
2023-03-10T23:06:06.004Z,1.70
2023-03-10T23:08:36.178Z,1.70
2023-03-10T23:11:04.613Z,1.70
2023-03-10T23:13:32.972Z,1.60
2023-03-10T23:16:01.434Z,1.60
2023-03-10T23:18:31.468Z,1.60
2023-03-10T23:21:00.304Z,1.60
2023-03-10T23:23:29.001Z,1.50
2023-03-10T23:25:57.558Z,1.50
2023-03-10T23:28:26.045Z,1.50
2023-03-10T23:30:54.583Z,1.40
2023-03-10T23:33:25.093Z,1.50
2023-03-10T23:35:55.443Z,1.50
2023-03-10T23:38:25.562Z,1.40
2023-03-10T23:40:55.549Z,1.40
2023-03-10T23:43:25.641Z,1.40
2023-03-10T23:45:54.229Z,1.40
2023-03-10T23:48:24.898Z,1.40
2023-03-10T23:50:54.889Z,1.30
2023-03-10T23:53:23.396Z,1.30
2023-03-10T23:55:52.044Z,1.30
2023-03-10T23:58:21.363Z,1.30
